sensor_id;sensor_type;location;lat;lon;timestamp;temperature;humidity
51867;DHT22;52862;52.504;13.480;2023-06-10T00:00:45;17.80;99.90
51867;DHT22;52862;52.504;13.480;2023-06-10T00:03:12;17.70;99.90
51867;DHT22;52862;52.504;13.480;2023-06-10T00:05:40;17.60;99.90
51867;DHT22;52862;52.504;13.480;2023-06-10T00:08:07;17.60;99.90
51867;DHT22;52862;52.504;13.480;2023-06-10T00:10:34;17.60;99.90
51867;DHT22;52862;52.504;13.480;2023-06-10T00:13:01;17.60;99.90
51867;DHT22;52862;52.504;13.480;2023-06-10T00:15:30;17.60;99.90
51867;DHT22;52862;52.504;13.480;2023-06-10T00:17:56;17.50;99.90
51867;DHT22;52862;52.504;13.480;2023-06-10T00:20:23;17.60;99.90
51867;DHT22;52862;52.504;13.480;2023-06-10T00:22:52;17.30;99.90
51867;DHT22;52862;52.504;13.480;2023-06-10T00:25:19;17.50;99.90
51867;DHT22;52862;52.504;13.480;2023-06-10T00:27:46;17.50;99.90
51867;DHT22;52862;52.504;13.480;2023-06-10T00:30:13;17.60;99.90
51867;DHT22;52862;52.504;13.480;2023-06-10T00:32:40;17.60;99.90
51867;DHT22;52862;52.504;13.480;2023-06-10T00:35:07;17.60;99.90
51867;DHT22;52862;52.504;13.480;2023-06-10T00:37:34;17.60;99.90
51867;DHT22;52862;52.504;13.480;2023-06-10T00:40:03;17.50;99.90
51867;DHT22;52862;52.504;13.480;2023-06-10T00:42:29;17.50;99.90
51867;DHT22;52862;52.504;13.480;2023-06-10T00:44:56;17.40;99.90
51867;DHT22;52862;52.504;13.480;2023-06-10T00:47:23;17.30;99.90
51867;DHT22;52862;52.504;13.480;2023-06-10T00:49:50;17.40;99.90
51867;DHT22;52862;52.504;13.480;2023-06-10T00:52:18;17.40;99.90
51867;DHT22;52862;52.504;13.480;2023-06-10T00:54:46;17.40;99.90
51867;DHT22;52862;52.504;13.480;2023-06-10T00:57:13;17.50;99.90
51867;DHT22;52862;52.504;13.480;2023-06-10T00:59:41;17.30;99.90
51867;DHT22;52862;52.504;13.480;2023-06-10T01:02:08;17.30;99.90
51867;DHT22;52862;52.504;13.480;2023-06-10T01:04:35;16.40;99.90
51867;DHT22;52862;52.504;13.480;2023-06-10T01:07:10;17.30;99.90
51867;DHT22;52862;52.504;13.480;2023-06-10T01:09:48;17.30;99.90
51867;DHT22;52862;52.504;13.480;2023-06-10T01:12:27;17.20;99.90
51867;DHT22;52862;52.504;13.480;2023-06-10T01:14:55;17.10;99.90
51867;DHT22;52862;52.504;13.480;2023-06-10T01:17:22;17.10;99.90
51867;DHT22;52862;52.504;13.480;2023-06-10T01:19:54;17.10;99.90
51867;DHT22;52862;52.504;13.480;2023-06-10T01:22:22;17.10;99.90
51867;DHT22;52862;52.504;13.480;2023-06-10T01:24:49;17.10;99.90
51867;DHT22;52862;52.504;13.480;2023-06-10T01:27:19;17.10;99.90
51867;DHT22;52862;52.504;13.480;2023-06-10T01:29:54;17.10;99.90
51867;DHT22;52862;52.504;13.480;2023-06-10T01:32:26;17.10;99.90
51867;DHT22;52862;52.504;13.480;2023-06-10T01:34:56;16.90;99.90
51867;DHT22;52862;52.504;13.480;2023-06-10T01:37:24;16.90;99.90
51867;DHT22;52862;52.504;13.480;2023-06-10T01:39:55;16.80;99.90
51867;DHT22;52862;52.504;13.480;2023-06-10T01:42:23;16.80;99.90
51867;DHT22;52862;52.504;13.480;2023-06-10T01:44:51;16.70;99.90
51867;DHT22;52862;52.504;13.480;2023-06-10T01:47:17;16.70;99.90
51867;DHT22;52862;52.504;13.480;2023-06-10T01:49:44;16.70;99.90
51867;DHT22;52862;52.504;13.480;2023-06-10T01:52:11;16.60;99.90
51867;DHT22;52862;52.504;13.480;2023-06-10T01:54:38;16.70;99.90
51867;DHT22;52862;52.504;13.480;2023-06-10T01:57:05;16.70;99.90
51867;DHT22;52862;52.504;13.480;2023-06-10T01:59:32;16.70;99.90
51867;DHT22;52862;52.504;13.480;2023-06-10T02:01:59;16.70;99.90
51867;DHT22;52862;52.504;13.480;2023-06-10T02:04:26;16.70;99.90
51867;DHT22;52862;52.504;13.480;2023-06-10T02:06:52;16.60;99.90
51867;DHT22;52862;52.504;13.480;2023-06-10T02:09:19;16.70;99.90
51867;DHT22;52862;52.504;13.480;2023-06-10T02:11:47;16.60;99.90
51867;DHT22;52862;52.504;13.480;2023-06-10T02:14:13;16.70;99.90
51867;DHT22;52862;52.504;13.480;2023-06-10T02:16:40;16.70;99.90
51867;DHT22;52862;52.504;13.480;2023-06-10T02:19:07;16.70;99.90
51867;DHT22;52862;52.504;13.480;2023-06-10T02:21:34;16.70;99.90
51867;DHT22;52862;52.504;13.480;2023-06-10T02:24:01;16.70;99.90
51867;DHT22;52862;52.504;13.480;2023-06-10T02:26:28;16.70;99.90
51867;DHT22;52862;52.504;13.480;2023-06-10T02:28:55;16.60;99.90
51867;DHT22;52862;52.504;13.480;2023-06-10T02:31:22;16.60;99.90
51867;DHT22;52862;52.504;13.480;2023-06-10T02:33:50;16.50;99.90
51867;DHT22;52862;52.504;13.480;2023-06-10T02:36:17;16.50;99.90
51867;DHT22;52862;52.504;13.480;2023-06-10T02:38:43;17.40;99.90
51867;DHT22;52862;52.504;13.480;2023-06-10T02:41:10;16.50;99.90
51867;DHT22;52862;52.504;13.480;2023-06-10T02:43:37;16.50;99.90
51867;DHT22;52862;52.504;13.480;2023-06-10T02:46:04;16.40;99.90
51867;DHT22;52862;52.504;13.480;2023-06-10T02:48:31;16.50;99.90
51867;DHT22;52862;52.504;13.480;2023-06-10T02:50:57;16.50;99.90
51867;DHT22;52862;52.504;13.480;2023-06-10T02:53:24;16.50;99.90
51867;DHT22;52862;52.504;13.480;2023-06-10T02:55:51;16.50;99.90
51867;DHT22;52862;52.504;13.480;2023-06-10T02:58:17;16.50;99.90
51867;DHT22;52862;52.504;13.480;2023-06-10T03:00:44;16.50;99.90
51867;DHT22;52862;52.504;13.480;2023-06-10T03:03:11;16.50;99.90
51867;DHT22;52862;52.504;13.480;2023-06-10T03:05:42;16.40;99.90
51867;DHT22;52862;52.504;13.480;2023-06-10T03:08:08;16.40;99.90
51867;DHT22;52862;52.504;13.480;2023-06-10T03:10:35;16.40;99.90
51867;DHT22;52862;52.504;13.480;2023-06-10T03:13:02;16.40;99.90
51867;DHT22;52862;52.504;13.480;2023-06-10T03:15:28;16.40;99.90
51867;DHT22;52862;52.504;13.480;2023-06-10T03:17:58;16.40;99.90
51867;DHT22;52862;52.504;13.480;2023-06-10T03:20:27;16.30;99.90
51867;DHT22;52862;52.504;13.480;2023-06-10T03:22:53;16.30;99.90
51867;DHT22;52862;52.504;13.480;2023-06-10T03:25:20;16.30;99.90
51867;DHT22;52862;52.504;13.480;2023-06-10T03:27:47;16.30;99.90
51867;DHT22;52862;52.504;13.480;2023-06-10T03:30:14;16.30;99.90
51867;DHT22;52862;52.504;13.480;2023-06-10T03:32:41;16.30;99.90
51867;DHT22;52862;52.504;13.480;2023-06-10T03:35:08;16.50;99.90
51867;DHT22;52862;52.504;13.480;2023-06-10T03:37:36;16.60;99.90
51867;DHT22;52862;52.504;13.480;2023-06-10T03:40:04;16.50;99.90
51867;DHT22;52862;52.504;13.480;2023-06-10T03:42:34;16.50;99.90
51867;DHT22;52862;52.504;13.480;2023-06-10T03:45:01;16.50;99.90
51867;DHT22;52862;52.504;13.480;2023-06-10T03:47:33;16.50;99.90
51867;DHT22;52862;52.504;13.480;2023-06-10T03:50:01;16.50;99.90
51867;DHT22;52862;52.504;13.480;2023-06-10T03:52:28;16.60;99.90
51867;DHT22;52862;52.504;13.480;2023-06-10T03:54:55;16.60;99.90
51867;DHT22;52862;52.504;13.480;2023-06-10T03:57:22;16.60;99.90
51867;DHT22;52862;52.504;13.480;2023-06-10T03:59:49;16.60;99.90
51867;DHT22;52862;52.504;13.480;2023-06-10T04:02:15;16.60;99.90
51867;DHT22;52862;52.504;13.480;2023-06-10T04:04:42;16.60;99.90
51867;DHT22;52862;52.504;13.480;2023-06-10T04:07:09;16.60;99.90
51867;DHT22;52862;52.504;13.480;2023-06-10T04:09:36;16.60;99.90
51867;DHT22;52862;52.504;13.480;2023-06-10T04:12:05;16.60;99.90
51867;DHT22;52862;52.504;13.480;2023-06-10T04:14:34;16.60;99.90
51867;DHT22;52862;52.504;13.480;2023-06-10T04:17:04;16.60;99.90
51867;DHT22;52862;52.504;13.480;2023-06-10T04:19:32;16.60;99.90
51867;DHT22;52862;52.504;13.480;2023-06-10T04:22:00;16.70;99.90
51867;DHT22;52862;52.504;13.480;2023-06-10T04:24:28;16.70;99.90
51867;DHT22;52862;52.504;13.480;2023-06-10T04:26:55;16.80;99.90
51867;DHT22;52862;52.504;13.480;2023-06-10T04:29:22;16.80;99.90
51867;DHT22;52862;52.504;13.480;2023-06-10T04:31:49;16.90;99.90
51867;DHT22;52862;52.504;13.480;2023-06-10T04:34:16;16.90;99.90
51867;DHT22;52862;52.504;13.480;2023-06-10T04:36:43;17.00;99.90
51867;DHT22;52862;52.504;13.480;2023-06-10T04:39:10;16.90;99.90
51867;DHT22;52862;52.504;13.480;2023-06-10T04:41:36;17.00;99.90
51867;DHT22;52862;52.504;13.480;2023-06-10T04:44:03;17.10;99.90
51867;DHT22;52862;52.504;13.480;2023-06-10T04:46:31;17.10;99.90
51867;DHT22;52862;52.504;13.480;2023-06-10T04:48:58;17.00;99.90
51867;DHT22;52862;52.504;13.480;2023-06-10T04:51:24;17.10;99.90
51867;DHT22;52862;52.504;13.480;2023-06-10T04:53:52;17.20;99.90
51867;DHT22;52862;52.504;13.480;2023-06-10T04:56:18;17.30;99.90
51867;DHT22;52862;52.504;13.480;2023-06-10T04:58:46;17.40;99.90
51867;DHT22;52862;52.504;13.480;2023-06-10T05:01:13;16.50;99.90
51867;DHT22;52862;52.504;13.480;2023-06-10T05:03:40;17.50;99.90
51867;DHT22;52862;52.504;13.480;2023-06-10T05:06:07;17.60;99.90
51867;DHT22;52862;52.504;13.480;2023-06-10T05:08:34;17.70;99.90
51867;DHT22;52862;52.504;13.480;2023-06-10T05:11:01;17.70;99.90
51867;DHT22;52862;52.504;13.480;2023-06-10T05:13:27;17.90;99.90
51867;DHT22;52862;52.504;13.480;2023-06-10T05:15:54;18.00;99.90
51867;DHT22;52862;52.504;13.480;2023-06-10T05:18:21;18.10;99.90
51867;DHT22;52862;52.504;13.480;2023-06-10T05:20:48;18.20;99.90
51867;DHT22;52862;52.504;13.480;2023-06-10T05:23:15;18.30;99.90
51867;DHT22;52862;52.504;13.480;2023-06-10T05:25:42;18.40;99.90
51867;DHT22;52862;52.504;13.480;2023-06-10T05:28:09;18.80;99.90
51867;DHT22;52862;52.504;13.480;2023-06-10T05:30:39;19.20;99.90
51867;DHT22;52862;52.504;13.480;2023-06-10T05:33:06;19.60;99.90
51867;DHT22;52862;52.504;13.480;2023-06-10T05:35:32;20.00;99.90
51867;DHT22;52862;52.504;13.480;2023-06-10T05:38:00;20.10;99.90
51867;DHT22;52862;52.504;13.480;2023-06-10T05:40:29;20.30;99.90
51867;DHT22;52862;52.504;13.480;2023-06-10T05:42:56;20.50;99.90
51867;DHT22;52862;52.504;13.480;2023-06-10T05:45:23;20.70;99.90
51867;DHT22;52862;52.504;13.480;2023-06-10T05:47:49;20.80;99.90
51867;DHT22;52862;52.504;13.480;2023-06-10T05:50:16;21.00;99.90
51867;DHT22;52862;52.504;13.480;2023-06-10T05:52:43;21.00;99.90
51867;DHT22;52862;52.504;13.480;2023-06-10T05:55:11;21.10;99.90
51867;DHT22;52862;52.504;13.480;2023-06-10T05:57:38;21.10;99.90
51867;DHT22;52862;52.504;13.480;2023-06-10T06:00:06;21.30;99.90
51867;DHT22;52862;52.504;13.480;2023-06-10T06:02:32;21.40;99.90
51867;DHT22;52862;52.504;13.480;2023-06-10T06:04:59;21.40;99.90
51867;DHT22;52862;52.504;13.480;2023-06-10T06:07:26;21.30;99.90
51867;DHT22;52862;52.504;13.480;2023-06-10T06:09:53;21.30;99.90
51867;DHT22;52862;52.504;13.480;2023-06-10T06:12:20;21.30;99.90
51867;DHT22;52862;52.504;13.480;2023-06-10T06:14:47;21.50;99.90
51867;DHT22;52862;52.504;13.480;2023-06-10T06:17:15;22.20;99.90
51867;DHT22;52862;52.504;13.480;2023-06-10T06:19:42;21.50;99.90
51867;DHT22;52862;52.504;13.480;2023-06-10T06:22:09;21.60;99.90
51867;DHT22;52862;52.504;13.480;2023-06-10T06:24:36;21.50;99.90
51867;DHT22;52862;52.504;13.480;2023-06-10T06:27:03;21.60;99.90
51867;DHT22;52862;52.504;13.480;2023-06-10T06:29:30;22.70;99.90
51867;DHT22;52862;52.504;13.480;2023-06-10T06:31:57;21.60;99.90
51867;DHT22;52862;52.504;13.480;2023-06-10T06:34:24;21.70;99.90
51867;DHT22;52862;52.504;13.480;2023-06-10T06:36:51;21.80;99.90
51867;DHT22;52862;52.504;13.480;2023-06-10T06:39:18;21.80;99.90
51867;DHT22;52862;52.504;13.480;2023-06-10T06:41:45;21.80;99.90
51867;DHT22;52862;52.504;13.480;2023-06-10T06:44:12;21.90;99.90
51867;DHT22;52862;52.504;13.480;2023-06-10T06:46:39;22.00;99.90
51867;DHT22;52862;52.504;13.480;2023-06-10T06:49:06;22.10;99.90
51867;DHT22;52862;52.504;13.480;2023-06-10T06:51:33;22.10;99.90
51867;DHT22;52862;52.504;13.480;2023-06-10T06:53:59;22.30;99.90
51867;DHT22;52862;52.504;13.480;2023-06-10T06:56:27;22.50;99.90
51867;DHT22;52862;52.504;13.480;2023-06-10T06:58:54;22.80;99.90
51867;DHT22;52862;52.504;13.480;2023-06-10T07:01:24;22.90;99.90
51867;DHT22;52862;52.504;13.480;2023-06-10T07:03:51;23.10;99.90
51867;DHT22;52862;52.504;13.480;2023-06-10T07:06:18;23.10;99.90
51867;DHT22;52862;52.504;13.480;2023-06-10T07:08:44;23.10;99.90
51867;DHT22;52862;52.504;13.480;2023-06-10T07:11:11;23.20;99.90
51867;DHT22;52862;52.504;13.480;2023-06-10T07:13:38;23.60;99.90
51867;DHT22;52862;52.504;13.480;2023-06-10T07:16:05;23.70;99.90
51867;DHT22;52862;52.504;13.480;2023-06-10T07:18:31;23.80;99.90
51867;DHT22;52862;52.504;13.480;2023-06-10T07:20:59;23.90;99.90
51867;DHT22;52862;52.504;13.480;2023-06-10T07:23:25;23.90;99.90
51867;DHT22;52862;52.504;13.480;2023-06-10T07:25:52;24.00;99.90
51867;DHT22;52862;52.504;13.480;2023-06-10T07:28:19;23.70;99.90
51867;DHT22;52862;52.504;13.480;2023-06-10T07:30:46;23.50;99.90
51867;DHT22;52862;52.504;13.480;2023-06-10T07:33:12;23.30;99.90
51867;DHT22;52862;52.504;13.480;2023-06-10T07:35:39;23.40;99.90
51867;DHT22;52862;52.504;13.480;2023-06-10T07:38:07;23.40;99.90
51867;DHT22;52862;52.504;13.480;2023-06-10T07:40:33;23.60;99.90
51867;DHT22;52862;52.504;13.480;2023-06-10T07:43:01;23.60;99.90
51867;DHT22;52862;52.504;13.480;2023-06-10T07:45:28;23.30;99.90
51867;DHT22;52862;52.504;13.480;2023-06-10T07:47:55;23.30;99.90
51867;DHT22;52862;52.504;13.480;2023-06-10T07:50:22;23.20;99.90
51867;DHT22;52862;52.504;13.480;2023-06-10T07:52:48;23.10;99.90
51867;DHT22;52862;52.504;13.480;2023-06-10T07:55:16;23.00;99.90
51867;DHT22;52862;52.504;13.480;2023-06-10T07:57:42;22.90;99.90
51867;DHT22;52862;52.504;13.480;2023-06-10T08:00:10;23.00;99.90
51867;DHT22;52862;52.504;13.480;2023-06-10T08:02:37;23.10;99.90
51867;DHT22;52862;52.504;13.480;2023-06-10T08:05:04;23.50;99.90
51867;DHT22;52862;52.504;13.480;2023-06-10T08:07:31;24.10;99.90
51867;DHT22;52862;52.504;13.480;2023-06-10T08:09:58;24.40;99.90
51867;DHT22;52862;52.504;13.480;2023-06-10T08:12:25;24.80;99.90
51867;DHT22;52862;52.504;13.480;2023-06-10T08:14:52;25.20;99.90
51867;DHT22;52862;52.504;13.480;2023-06-10T08:17:19;25.20;99.90
51867;DHT22;52862;52.504;13.480;2023-06-10T08:19:46;25.00;99.90
51867;DHT22;52862;52.504;13.480;2023-06-10T08:22:15;25.10;99.90
51867;DHT22;52862;52.504;13.480;2023-06-10T08:24:42;25.20;99.90
51867;DHT22;52862;52.504;13.480;2023-06-10T08:27:08;25.50;99.90
51867;DHT22;52862;52.504;13.480;2023-06-10T08:29:36;25.80;99.90
51867;DHT22;52862;52.504;13.480;2023-06-10T08:32:04;26.00;99.90
51867;DHT22;52862;52.504;13.480;2023-06-10T08:34:33;26.20;99.90
51867;DHT22;52862;52.504;13.480;2023-06-10T08:37:00;26.10;99.70
51867;DHT22;52862;52.504;13.480;2023-06-10T08:39:27;26.30;99.90
51867;DHT22;52862;52.504;13.480;2023-06-10T08:42:04;26.60;99.70
51867;DHT22;52862;52.504;13.480;2023-06-10T08:44:38;26.70;98.70
51867;DHT22;52862;52.504;13.480;2023-06-10T08:47:10;26.70;98.60
51867;DHT22;52862;52.504;13.480;2023-06-10T08:49:43;26.70;99.20
51867;DHT22;52862;52.504;13.480;2023-06-10T08:52:14;26.40;99.40
51867;DHT22;52862;52.504;13.480;2023-06-10T08:54:43;26.40;99.80
51867;DHT22;52862;52.504;13.480;2023-06-10T08:57:13;26.40;99.90
51867;DHT22;52862;52.504;13.480;2023-06-10T08:59:41;26.40;99.60
51867;DHT22;52862;52.504;13.480;2023-06-10T09:02:08;25.90;99.90
51867;DHT22;52862;52.504;13.480;2023-06-10T09:04:36;25.70;99.90
51867;DHT22;52862;52.504;13.480;2023-06-10T09:07:04;25.70;99.90
51867;DHT22;52862;52.504;13.480;2023-06-10T09:09:31;25.60;99.90
51867;DHT22;52862;52.504;13.480;2023-06-10T09:11:58;25.60;99.90
51867;DHT22;52862;52.504;13.480;2023-06-10T09:14:26;25.70;99.90
51867;DHT22;52862;52.504;13.480;2023-06-10T09:16:53;25.70;99.90
51867;DHT22;52862;52.504;13.480;2023-06-10T09:19:23;25.80;99.90
51867;DHT22;52862;52.504;13.480;2023-06-10T09:21:51;25.80;99.90
51867;DHT22;52862;52.504;13.480;2023-06-10T09:24:18;25.90;99.90
51867;DHT22;52862;52.504;13.480;2023-06-10T09:26:45;26.10;99.90
51867;DHT22;52862;52.504;13.480;2023-06-10T09:29:12;26.00;99.90
51867;DHT22;52862;52.504;13.480;2023-06-10T09:31:39;25.90;99.90
51867;DHT22;52862;52.504;13.480;2023-06-10T09:34:08;25.60;99.90
51867;DHT22;52862;52.504;13.480;2023-06-10T09:36:36;25.60;99.90
51867;DHT22;52862;52.504;13.480;2023-06-10T09:39:04;25.60;99.90
51867;DHT22;52862;52.504;13.480;2023-06-10T09:41:34;25.70;99.90
51867;DHT22;52862;52.504;13.480;2023-06-10T09:44:11;25.80;99.90
51867;DHT22;52862;52.504;13.480;2023-06-10T09:46:38;25.30;99.90
51867;DHT22;52862;52.504;13.480;2023-06-10T09:49:05;24.70;99.90
51867;DHT22;52862;52.504;13.480;2023-06-10T09:51:33;24.60;99.90
51867;DHT22;52862;52.504;13.480;2023-06-10T09:54:02;24.60;99.90
51867;DHT22;52862;52.504;13.480;2023-06-10T09:56:36;24.40;99.90
51867;DHT22;52862;52.504;13.480;2023-06-10T09:59:03;24.40;99.90
51867;DHT22;52862;52.504;13.480;2023-06-10T10:01:32;24.40;99.90
51867;DHT22;52862;52.504;13.480;2023-06-10T10:03:59;24.40;99.90
51867;DHT22;52862;52.504;13.480;2023-06-10T10:06:27;24.50;99.90
51867;DHT22;52862;52.504;13.480;2023-06-10T10:08:55;24.60;99.90
51867;DHT22;52862;52.504;13.480;2023-06-10T10:11:23;24.70;99.90
51867;DHT22;52862;52.504;13.480;2023-06-10T10:13:50;24.70;99.90
51867;DHT22;52862;52.504;13.480;2023-06-10T10:16:20;24.80;99.90
51867;DHT22;52862;52.504;13.480;2023-06-10T10:18:54;25.00;99.70
51867;DHT22;52862;52.504;13.480;2023-06-10T10:21:23;25.00;99.50
51867;DHT22;52862;52.504;13.480;2023-06-10T10:23:58;25.00;99.00
51867;DHT22;52862;52.504;13.480;2023-06-10T10:26:27;25.00;98.80
51867;DHT22;52862;52.504;13.480;2023-06-10T10:29:05;25.10;99.00
51867;DHT22;52862;52.504;13.480;2023-06-10T10:31:35;25.00;98.60
51867;DHT22;52862;52.504;13.480;2023-06-10T10:34:06;25.00;98.30
51867;DHT22;52862;52.504;13.480;2023-06-10T10:36:34;25.00;98.10
51867;DHT22;52862;52.504;13.480;2023-06-10T10:39:03;25.00;97.70
51867;DHT22;52862;52.504;13.480;2023-06-10T10:41:31;25.20;97.80
51867;DHT22;52862;52.504;13.480;2023-06-10T10:43:59;25.70;96.80
51867;DHT22;52862;52.504;13.480;2023-06-10T10:46:26;26.10;95.40
51867;DHT22;52862;52.504;13.480;2023-06-10T10:48:53;26.30;94.10
51867;DHT22;52862;52.504;13.480;2023-06-10T10:51:23;26.50;94.20
51867;DHT22;52862;52.504;13.480;2023-06-10T10:54:11;26.50;93.40
51867;DHT22;52862;52.504;13.480;2023-06-10T10:56:39;26.60;92.70
51867;DHT22;52862;52.504;13.480;2023-06-10T10:59:06;26.60;92.90
51867;DHT22;52862;52.504;13.480;2023-06-10T11:01:40;26.40;92.40
51867;DHT22;52862;52.504;13.480;2023-06-10T11:04:07;26.40;92.50
51867;DHT22;52862;52.504;13.480;2023-06-10T11:06:34;26.50;92.50
51867;DHT22;52862;52.504;13.480;2023-06-10T11:09:25;26.60;91.90
51867;DHT22;52862;52.504;13.480;2023-06-10T11:11:52;27.00;91.40
51867;DHT22;52862;52.504;13.480;2023-06-10T11:14:27;27.50;90.50
51867;DHT22;52862;52.504;13.480;2023-06-10T11:16:56;27.60;90.00
51867;DHT22;52862;52.504;13.480;2023-06-10T11:19:33;27.60;89.60
51867;DHT22;52862;52.504;13.480;2023-06-10T11:22:01;27.70;89.00
51867;DHT22;52862;52.504;13.480;2023-06-10T11:24:29;28.00;87.70
51867;DHT22;52862;52.504;13.480;2023-06-10T11:27:15;28.30;87.70
51867;DHT22;52862;52.504;13.480;2023-06-10T11:29:56;28.40;86.60
51867;DHT22;52862;52.504;13.480;2023-06-10T11:32:23;28.60;86.80
51867;DHT22;52862;52.504;13.480;2023-06-10T11:34:52;29.00;87.30
51867;DHT22;52862;52.504;13.480;2023-06-10T11:37:20;29.30;84.90
51867;DHT22;52862;52.504;13.480;2023-06-10T11:39:47;29.00;83.50
51867;DHT22;52862;52.504;13.480;2023-06-10T11:42:18;28.90;82.10
51867;DHT22;52862;52.504;13.480;2023-06-10T11:44:48;28.60;82.80
51867;DHT22;52862;52.504;13.480;2023-06-10T11:47:16;28.60;84.30
51867;DHT22;52862;52.504;13.480;2023-06-10T11:49:42;28.40;85.90
51867;DHT22;52862;52.504;13.480;2023-06-10T11:52:13;28.40;86.50
51867;DHT22;52862;52.504;13.480;2023-06-10T11:54:40;28.70;87.80
51867;DHT22;52862;52.504;13.480;2023-06-10T11:57:06;28.80;88.50
51867;DHT22;52862;52.504;13.480;2023-06-10T11:59:35;28.90;88.60
51867;DHT22;52862;52.504;13.480;2023-06-10T12:02:02;29.50;90.00
51867;DHT22;52862;52.504;13.480;2023-06-10T12:04:29;28.80;88.60
51867;DHT22;52862;52.504;13.480;2023-06-10T12:06:55;28.60;86.50
51867;DHT22;52862;52.504;13.480;2023-06-10T12:09:23;28.80;86.60
51867;DHT22;52862;52.504;13.480;2023-06-10T12:11:55;29.00;86.80
51867;DHT22;52862;52.504;13.480;2023-06-10T12:14:53;29.20;86.10
51867;DHT22;52862;52.504;13.480;2023-06-10T12:17:21;29.40;85.80
51867;DHT22;52862;52.504;13.480;2023-06-10T12:19:49;29.70;85.90
51867;DHT22;52862;52.504;13.480;2023-06-10T12:22:15;29.80;84.20
51867;DHT22;52862;52.504;13.480;2023-06-10T12:24:56;29.80;84.20
51867;DHT22;52862;52.504;13.480;2023-06-10T12:27:24;29.70;85.10
51867;DHT22;52862;52.504;13.480;2023-06-10T12:29:51;29.90;85.00
51867;DHT22;52862;52.504;13.480;2023-06-10T12:32:20;30.00;84.70
51867;DHT22;52862;52.504;13.480;2023-06-10T12:35:02;30.30;85.10
51867;DHT22;52862;52.504;13.480;2023-06-10T12:37:30;30.50;84.90
51867;DHT22;52862;52.504;13.480;2023-06-10T12:40:00;30.50;84.60
51867;DHT22;52862;52.504;13.480;2023-06-10T12:42:29;30.60;84.60
51867;DHT22;52862;52.504;13.480;2023-06-10T12:44:56;30.50;83.30
51867;DHT22;52862;52.504;13.480;2023-06-10T12:47:31;30.70;83.90
51867;DHT22;52862;52.504;13.480;2023-06-10T12:49:59;30.70;84.80
51867;DHT22;52862;52.504;13.480;2023-06-10T12:52:26;30.80;84.60
51867;DHT22;52862;52.504;13.480;2023-06-10T12:54:53;31.20;84.90
51867;DHT22;52862;52.504;13.480;2023-06-10T12:57:20;31.20;84.00
51867;DHT22;52862;52.504;13.480;2023-06-10T12:59:47;31.20;84.20
51867;DHT22;52862;52.504;13.480;2023-06-10T13:02:18;31.40;84.00
51867;DHT22;52862;52.504;13.480;2023-06-10T13:04:47;30.90;84.60
51867;DHT22;52862;52.504;13.480;2023-06-10T13:07:14;30.80;85.80
51867;DHT22;52862;52.504;13.480;2023-06-10T13:09:40;30.90;85.80
51867;DHT22;52862;52.504;13.480;2023-06-10T13:12:08;31.20;83.70
51867;DHT22;52862;52.504;13.480;2023-06-10T13:14:42;31.50;82.60
51867;DHT22;52862;52.504;13.480;2023-06-10T13:17:09;31.90;80.20
51867;DHT22;52862;52.504;13.480;2023-06-10T13:19:35;32.20;81.40
51867;DHT22;52862;52.504;13.480;2023-06-10T13:22:03;32.20;81.40
51867;DHT22;52862;52.504;13.480;2023-06-10T13:24:30;32.40;80.30
51867;DHT22;52862;52.504;13.480;2023-06-10T13:26:57;32.50;80.80
51867;DHT22;52862;52.504;13.480;2023-06-10T13:29:24;32.40;81.00
51867;DHT22;52862;52.504;13.480;2023-06-10T13:31:51;32.00;80.70
51867;DHT22;52862;52.504;13.480;2023-06-10T13:34:18;31.20;81.50
51867;DHT22;52862;52.504;13.480;2023-06-10T13:36:45;31.00;83.10
51867;DHT22;52862;52.504;13.480;2023-06-10T13:39:12;31.40;82.80
51867;DHT22;52862;52.504;13.480;2023-06-10T13:41:40;32.10;81.50
51867;DHT22;52862;52.504;13.480;2023-06-10T13:44:07;32.60;80.30
51867;DHT22;52862;52.504;13.480;2023-06-10T13:46:34;32.60;79.70
51867;DHT22;52862;52.504;13.480;2023-06-10T13:49:00;31.90;79.60
51867;DHT22;52862;52.504;13.480;2023-06-10T13:51:27;31.00;80.90
51867;DHT22;52862;52.504;13.480;2023-06-10T13:53:54;30.20;84.10
51867;DHT22;52862;52.504;13.480;2023-06-10T13:56:22;30.30;84.30
51867;DHT22;52862;52.504;13.480;2023-06-10T13:58:49;30.90;83.50
51867;DHT22;52862;52.504;13.480;2023-06-10T14:01:16;30.30;81.20
51867;DHT22;52862;52.504;13.480;2023-06-10T14:03:42;30.90;81.90
51867;DHT22;52862;52.504;13.480;2023-06-10T14:06:09;30.70;81.60
51867;DHT22;52862;52.504;13.480;2023-06-10T14:08:39;31.20;80.20
51867;DHT22;52862;52.504;13.480;2023-06-10T14:11:06;31.90;77.00
51867;DHT22;52862;52.504;13.480;2023-06-10T14:13:33;32.60;75.60
51867;DHT22;52862;52.504;13.480;2023-06-10T14:16:00;34.20;72.50
51867;DHT22;52862;52.504;13.480;2023-06-10T14:18:29;36.60;67.10
51867;DHT22;52862;52.504;13.480;2023-06-10T14:20:55;37.70;61.90
51867;DHT22;52862;52.504;13.480;2023-06-10T14:23:22;38.40;59.60
51867;DHT22;52862;52.504;13.480;2023-06-10T14:25:50;39.40;58.40
51867;DHT22;52862;52.504;13.480;2023-06-10T14:28:17;40.20;57.00
51867;DHT22;52862;52.504;13.480;2023-06-10T14:30:44;40.60;55.30
51867;DHT22;52862;52.504;13.480;2023-06-10T14:33:11;40.90;53.90
51867;DHT22;52862;52.504;13.480;2023-06-10T14:35:38;41.30;53.30
51867;DHT22;52862;52.504;13.480;2023-06-10T14:38:05;41.80;52.20
51867;DHT22;52862;52.504;13.480;2023-06-10T14:40:34;41.70;50.30
51867;DHT22;52862;52.504;13.480;2023-06-10T14:43:01;42.20;50.60
51867;DHT22;52862;52.504;13.480;2023-06-10T14:45:30;42.00;49.70
51867;DHT22;52862;52.504;13.480;2023-06-10T14:47:59;41.60;49.20
51867;DHT22;52862;52.504;13.480;2023-06-10T14:50:26;42.20;49.00
51867;DHT22;52862;52.504;13.480;2023-06-10T14:52:53;42.80;47.80
51867;DHT22;52862;52.504;13.480;2023-06-10T14:55:19;43.50;47.00
51867;DHT22;52862;52.504;13.480;2023-06-10T14:57:48;43.80;46.70
51867;DHT22;52862;52.504;13.480;2023-06-10T15:00:16;44.10;45.90
51867;DHT22;52862;52.504;13.480;2023-06-10T15:02:48;43.50;46.10
51867;DHT22;52862;52.504;13.480;2023-06-10T15:05:16;43.60;46.00
51867;DHT22;52862;52.504;13.480;2023-06-10T15:07:43;43.80;46.10
51867;DHT22;52862;52.504;13.480;2023-06-10T15:10:10;42.60;45.30
51867;DHT22;52862;52.504;13.480;2023-06-10T15:12:37;42.80;45.40
51867;DHT22;52862;52.504;13.480;2023-06-10T15:15:04;42.30;45.60
51867;DHT22;52862;52.504;13.480;2023-06-10T15:17:31;42.80;45.70
51867;DHT22;52862;52.504;13.480;2023-06-10T15:19:58;42.80;45.20